sensor_id;sensor_type;location;lat;lon;timestamp;pressure;altitude;pressure_sealevel;temperature;humidity
36514;BME280;74739;46.796;9.824;2023-12-20T00:00:26;84531.87;;;-0.49;44.68
36514;BME280;74739;46.796;9.824;2023-12-20T00:02:53;84526.17;;;-0.67;44.29
36514;BME280;74739;46.796;9.824;2023-12-20T00:05:20;84530.26;;;-4.45;52.60
36514;BME280;74739;46.796;9.824;2023-12-20T00:07:47;84527.85;;;-1.99;49.33
36514;BME280;74739;46.796;9.824;2023-12-20T00:10:14;84532.84;;;-2.17;47.89
36514;BME280;74739;46.796;9.824;2023-12-20T00:12:41;84531.18;;;-1.71;47.16
36514;BME280;74739;46.796;9.824;2023-12-20T00:15:08;84541.28;;;-6.10;57.25
36514;BME280;74739;46.796;9.824;2023-12-20T00:17:35;84537.56;;;-4.63;57.88
36514;BME280;74739;46.796;9.824;2023-12-20T00:20:03;84538.67;;;-3.15;52.08
36514;BME280;74739;46.796;9.824;2023-12-20T00:22:30;84536.65;;;-1.66;48.19
36514;BME280;74739;46.796;9.824;2023-12-20T00:24:57;84539.84;;;-4.39;51.75
36514;BME280;74739;46.796;9.824;2023-12-20T00:27:24;84540.01;;;-4.51;52.50
36514;BME280;74739;46.796;9.824;2023-12-20T00:29:51;84550.13;;;-5.70;59.13
36514;BME280;74739;46.796;9.824;2023-12-20T00:32:18;84538.74;;;-2.85;51.62
36514;BME280;74739;46.796;9.824;2023-12-20T00:34:45;84535.18;;;-2.12;48.81
36514;BME280;74739;46.796;9.824;2023-12-20T00:37:12;84533.45;;;-2.10;48.18
36514;BME280;74739;46.796;9.824;2023-12-20T00:39:39;84536.14;;;-4.36;51.95
36514;BME280;74739;46.796;9.824;2023-12-20T00:42:06;84538.43;;;-5.23;56.59
36514;BME280;74739;46.796;9.824;2023-12-20T00:44:35;84529.07;;;-4.75;55.03
36514;BME280;74739;46.796;9.824;2023-12-20T00:47:02;84534.33;;;-5.89;59.93
36514;BME280;74739;46.796;9.824;2023-12-20T00:49:29;84522.19;;;-3.37;52.60
36514;BME280;74739;46.796;9.824;2023-12-20T00:51:56;84517.31;;;-2.07;49.62
36514;BME280;74739;46.796;9.824;2023-12-20T00:54:23;84511.98;;;-1.66;47.43
36514;BME280;74739;46.796;9.824;2023-12-20T00:56:50;84515.87;;;-3.97;53.64
36514;BME280;74739;46.796;9.824;2023-12-20T00:59:17;84516.71;;;-4.36;55.07
36514;BME280;74739;46.796;9.824;2023-12-20T01:01:45;84514.34;;;-4.64;55.38
36514;BME280;74739;46.796;9.824;2023-12-20T01:04:13;84508.87;;;-4.46;56.34
36514;BME280;74739;46.796;9.824;2023-12-20T01:06:40;84502.07;;;-3.20;51.72
36514;BME280;74739;46.796;9.824;2023-12-20T01:09:08;84496.77;;;-3.97;53.15
36514;BME280;74739;46.796;9.824;2023-12-20T01:11:35;84496.15;;;-2.69;49.45
36514;BME280;74739;46.796;9.824;2023-12-20T01:14:03;84495.91;;;-2.57;50.26
36514;BME280;74739;46.796;9.824;2023-12-20T01:16:31;84489.23;;;0.17;43.80
36514;BME280;74739;46.796;9.824;2023-12-20T01:19:00;84485.67;;;0.63;42.21
36514;BME280;74739;46.796;9.824;2023-12-20T01:21:28;84490.83;;;-3.93;52.75
36514;BME280;74739;46.796;9.824;2023-12-20T01:23:56;84491.44;;;-5.12;55.66
36514;BME280;74739;46.796;9.824;2023-12-20T01:26:24;84482.05;;;-2.80;50.67
36514;BME280;74739;46.796;9.824;2023-12-20T01:28:52;84472.88;;;-1.03;46.25
36514;BME280;74739;46.796;9.824;2023-12-20T01:31:20;84471.85;;;-2.10;46.01
36514;BME280;74739;46.796;9.824;2023-12-20T01:33:49;84467.37;;;-2.50;47.55
36514;BME280;74739;46.796;9.824;2023-12-20T01:36:17;84467.39;;;-3.99;49.92
36514;BME280;74739;46.796;9.824;2023-12-20T01:38:45;84464.49;;;-5.17;56.25
36514;BME280;74739;46.796;9.824;2023-12-20T01:41:13;84457.30;;;-3.11;51.80
36514;BME280;74739;46.796;9.824;2023-12-20T01:43:42;84450.71;;;-1.83;47.39
36514;BME280;74739;46.796;9.824;2023-12-20T01:46:10;84442.33;;;-1.00;45.55
36514;BME280;74739;46.796;9.824;2023-12-20T01:48:38;84434.52;;;-1.83;46.66
36514;BME280;74739;46.796;9.824;2023-12-20T01:51:06;84437.38;;;-3.88;51.20
36514;BME280;74739;46.796;9.824;2023-12-20T01:53:35;84434.25;;;-1.61;46.88
36514;BME280;74739;46.796;9.824;2023-12-20T01:56:03;84428.03;;;-0.45;44.90
36514;BME280;74739;46.796;9.824;2023-12-20T01:58:41;84423.90;;;-0.93;44.97
36514;BME280;74739;46.796;9.824;2023-12-20T02:01:14;84419.27;;;-1.42;45.71
36514;BME280;74739;46.796;9.824;2023-12-20T02:03:46;84413.77;;;-2.84;47.86
36514;BME280;74739;46.796;9.824;2023-12-20T02:06:17;84408.81;;;-1.82;46.89
36514;BME280;74739;46.796;9.824;2023-12-20T02:08:48;84405.27;;;-3.50;49.72
36514;BME280;74739;46.796;9.824;2023-12-20T02:11:19;84399.71;;;-1.55;46.34
36514;BME280;74739;46.796;9.824;2023-12-20T02:13:47;84390.01;;;-1.72;46.20
36514;BME280;74739;46.796;9.824;2023-12-20T02:16:15;84382.52;;;-4.22;53.36
36514;BME280;74739;46.796;9.824;2023-12-20T02:18:43;84376.79;;;-2.48;48.95
36514;BME280;74739;46.796;9.824;2023-12-20T02:21:11;84377.57;;;-2.54;49.61
36514;BME280;74739;46.796;9.824;2023-12-20T02:23:39;84382.24;;;-4.59;52.78
36514;BME280;74739;46.796;9.824;2023-12-20T02:26:07;84380.02;;;-5.60;57.20
36514;BME280;74739;46.796;9.824;2023-12-20T02:28:35;84369.76;;;-6.13;58.51
36514;BME280;74739;46.796;9.824;2023-12-20T02:31:03;84368.16;;;-6.64;61.79
36514;BME280;74739;46.796;9.824;2023-12-20T02:33:32;84361.09;;;-4.39;56.97
36514;BME280;74739;46.796;9.824;2023-12-20T02:36:06;84361.02;;;-3.50;52.40
36514;BME280;74739;46.796;9.824;2023-12-20T02:38:35;84363.43;;;-5.96;59.79
36514;BME280;74739;46.796;9.824;2023-12-20T02:41:03;84351.43;;;-5.05;58.25
36514;BME280;74739;46.796;9.824;2023-12-20T02:43:30;84341.21;;;-3.00;52.61
36514;BME280;74739;46.796;9.824;2023-12-20T02:45:59;84340.24;;;-3.04;50.82
36514;BME280;74739;46.796;9.824;2023-12-20T02:48:26;84336.90;;;-1.87;48.71
36514;BME280;74739;46.796;9.824;2023-12-20T02:50:55;84332.89;;;-3.27;53.25
36514;BME280;74739;46.796;9.824;2023-12-20T02:53:22;84315.76;;;-1.87;47.85
36514;BME280;74739;46.796;9.824;2023-12-20T02:55:51;84304.99;;;-4.89;56.33
36514;BME280;74739;46.796;9.824;2023-12-20T02:58:18;84299.81;;;-5.75;59.21
36514;BME280;74739;46.796;9.824;2023-12-20T03:00:47;84298.78;;;-5.80;59.99
36514;BME280;74739;46.796;9.824;2023-12-20T03:03:15;84295.75;;;-3.16;53.83
36514;BME280;74739;46.796;9.824;2023-12-20T03:05:43;84292.78;;;-3.80;52.51
36514;BME280;74739;46.796;9.824;2023-12-20T03:08:11;84287.05;;;-3.99;54.07
36514;BME280;74739;46.796;9.824;2023-12-20T03:10:42;84284.84;;;-3.21;50.90
36514;BME280;74739;46.796;9.824;2023-12-20T03:13:09;84286.11;;;-2.80;50.89
36514;BME280;74739;46.796;9.824;2023-12-20T03:15:36;84293.91;;;-3.48;52.43
36514;BME280;74739;46.796;9.824;2023-12-20T03:18:03;84305.96;;;-4.36;55.48
36514;BME280;74739;46.796;9.824;2023-12-20T03:20:31;84324.38;;;-5.78;59.60
36514;BME280;74739;46.796;9.824;2023-12-20T03:22:59;84323.92;;;-2.58;51.25
36514;BME280;74739;46.796;9.824;2023-12-20T03:25:26;84316.53;;;-3.48;50.36
36514;BME280;74739;46.796;9.824;2023-12-20T03:27:54;84314.67;;;-5.50;58.74
36514;BME280;74739;46.796;9.824;2023-12-20T03:30:21;84318.50;;;-5.54;58.88
36514;BME280;74739;46.796;9.824;2023-12-20T03:32:48;84326.46;;;-3.93;56.37
36514;BME280;74739;46.796;9.824;2023-12-20T03:35:17;84333.44;;;-3.36;53.45
36514;BME280;74739;46.796;9.824;2023-12-20T03:37:50;84327.94;;;-3.55;51.22
36514;BME280;74739;46.796;9.824;2023-12-20T03:40:24;84316.11;;;-4.37;54.40
36514;BME280;74739;46.796;9.824;2023-12-20T03:42:52;84316.63;;;-4.75;55.61
36514;BME280;74739;46.796;9.824;2023-12-20T03:45:22;84315.01;;;-4.11;54.33
36514;BME280;74739;46.796;9.824;2023-12-20T03:47:49;84320.48;;;-4.76;55.03
36514;BME280;74739;46.796;9.824;2023-12-20T03:50:17;84318.88;;;-3.78;52.03
36514;BME280;74739;46.796;9.824;2023-12-20T03:52:44;84318.91;;;-2.07;48.16
36514;BME280;74739;46.796;9.824;2023-12-20T03:55:11;84321.80;;;-2.09;48.66
36514;BME280;74739;46.796;9.824;2023-12-20T03:57:39;84325.03;;;-2.31;47.68
36514;BME280;74739;46.796;9.824;2023-12-20T04:00:08;84327.83;;;-2.67;50.88
36514;BME280;74739;46.796;9.824;2023-12-20T04:02:35;84323.91;;;-1.76;47.07
36514;BME280;74739;46.796;9.824;2023-12-20T04:05:02;84324.45;;;-3.02;49.89
36514;BME280;74739;46.796;9.824;2023-12-20T04:07:29;84322.71;;;-3.24;50.13
36514;BME280;74739;46.796;9.824;2023-12-20T04:09:56;84317.99;;;-3.75;51.58
36514;BME280;74739;46.796;9.824;2023-12-20T04:12:23;84323.56;;;-4.06;52.84
36514;BME280;74739;46.796;9.824;2023-12-20T04:14:50;84326.67;;;-4.41;53.21
36514;BME280;74739;46.796;9.824;2023-12-20T04:17:17;84324.00;;;-1.41;46.93
36514;BME280;74739;46.796;9.824;2023-12-20T04:19:46;84330.16;;;-2.33;48.32
36514;BME280;74739;46.796;9.824;2023-12-20T04:22:12;84331.80;;;-3.86;52.43
36514;BME280;74739;46.796;9.824;2023-12-20T04:24:39;84331.99;;;-4.36;54.79
36514;BME280;74739;46.796;9.824;2023-12-20T04:27:12;84323.02;;;-3.35;52.51
36514;BME280;74739;46.796;9.824;2023-12-20T04:29:40;84329.18;;;-3.90;52.56
36514;BME280;74739;46.796;9.824;2023-12-20T04:32:07;84332.19;;;-2.41;49.02
36514;BME280;74739;46.796;9.824;2023-12-20T04:34:33;84331.05;;;-3.68;51.09
36514;BME280;74739;46.796;9.824;2023-12-20T04:37:00;84328.45;;;-3.61;51.26
36514;BME280;74739;46.796;9.824;2023-12-20T04:39:28;84332.07;;;-3.54;50.98
36514;BME280;74739;46.796;9.824;2023-12-20T04:41:55;84332.99;;;-2.24;47.99
36514;BME280;74739;46.796;9.824;2023-12-20T04:44:23;84337.45;;;-3.14;50.92
36514;BME280;74739;46.796;9.824;2023-12-20T04:46:50;84341.45;;;-3.69;51.42
36514;BME280;74739;46.796;9.824;2023-12-20T04:49:24;84337.73;;;-2.75;48.66
36514;BME280;74739;46.796;9.824;2023-12-20T04:51:52;84344.54;;;-4.05;52.12
36514;BME280;74739;46.796;9.824;2023-12-20T04:54:23;84349.09;;;-3.93;52.24
36514;BME280;74739;46.796;9.824;2023-12-20T04:56:51;84353.77;;;-3.84;50.98
36514;BME280;74739;46.796;9.824;2023-12-20T04:59:19;84352.73;;;-3.78;50.39
36514;BME280;74739;46.796;9.824;2023-12-20T05:02:01;84354.57;;;-2.48;47.98
36514;BME280;74739;46.796;9.824;2023-12-20T05:04:35;84355.03;;;-3.03;47.79
36514;BME280;74739;46.796;9.824;2023-12-20T05:07:05;84359.79;;;-2.77;47.45
36514;BME280;74739;46.796;9.824;2023-12-20T05:09:32;84358.01;;;-2.22;45.40
36514;BME280;74739;46.796;9.824;2023-12-20T05:12:00;84356.00;;;-3.72;50.49
36514;BME280;74739;46.796;9.824;2023-12-20T05:14:27;84356.45;;;-3.48;49.69
36514;BME280;74739;46.796;9.824;2023-12-20T05:17:14;84356.62;;;-3.54;48.70
36514;BME280;74739;46.796;9.824;2023-12-20T05:20:05;84363.87;;;-3.50;49.71
36514;BME280;74739;46.796;9.824;2023-12-20T05:22:34;84376.92;;;-3.52;49.72
36514;BME280;74739;46.796;9.824;2023-12-20T05:25:01;84370.06;;;-1.65;45.95
36514;BME280;74739;46.796;9.824;2023-12-20T05:27:29;84382.32;;;-1.27;43.11
36514;BME280;74739;46.796;9.824;2023-12-20T05:29:56;84394.72;;;-2.20;45.78
36514;BME280;74739;46.796;9.824;2023-12-20T05:32:28;84402.33;;;-3.18;47.52
36514;BME280;74739;46.796;9.824;2023-12-20T05:34:55;84403.64;;;-3.26;46.15
36514;BME280;74739;46.796;9.824;2023-12-20T05:37:22;84404.62;;;-2.50;44.75
36514;BME280;74739;46.796;9.824;2023-12-20T05:39:49;84395.82;;;-0.47;41.42
36514;BME280;74739;46.796;9.824;2023-12-20T05:42:16;84398.25;;;-2.14;43.13
36514;BME280;74739;46.796;9.824;2023-12-20T05:44:42;84398.05;;;-0.97;41.58
36514;BME280;74739;46.796;9.824;2023-12-20T05:47:10;84402.36;;;-2.14;43.70
36514;BME280;74739;46.796;9.824;2023-12-20T05:49:37;84372.44;;;-0.89;41.87
36514;BME280;74739;46.796;9.824;2023-12-20T05:52:04;84371.38;;;-2.41;42.77
36514;BME280;74739;46.796;9.824;2023-12-20T05:54:33;84376.79;;;-2.41;43.94
36514;BME280;74739;46.796;9.824;2023-12-20T05:57:00;84393.83;;;-3.71;46.73
36514;BME280;74739;46.796;9.824;2023-12-20T05:59:27;84400.02;;;-3.68;48.88
36514;BME280;74739;46.796;9.824;2023-12-20T06:01:54;84408.44;;;-4.07;49.58
36514;BME280;74739;46.796;9.824;2023-12-20T06:04:21;84403.93;;;-2.70;47.38
36514;BME280;74739;46.796;9.824;2023-12-20T06:06:47;84407.96;;;-4.02;49.69
36514;BME280;74739;46.796;9.824;2023-12-20T06:09:14;84410.02;;;-2.19;46.19
36514;BME280;74739;46.796;9.824;2023-12-20T06:11:42;84407.05;;;-1.28;42.25
36514;BME280;74739;46.796;9.824;2023-12-20T06:14:09;84408.50;;;-2.36;45.26
36514;BME280;74739;46.796;9.824;2023-12-20T06:16:36;84409.31;;;-1.08;41.32
36514;BME280;74739;46.796;9.824;2023-12-20T06:19:03;84406.10;;;-0.81;42.47
36514;BME280;74739;46.796;9.824;2023-12-20T06:21:30;84405.84;;;-1.50;42.07
36514;BME280;74739;46.796;9.824;2023-12-20T06:23:59;84401.49;;;0.80;39.47
36514;BME280;74739;46.796;9.824;2023-12-20T06:26:26;84404.58;;;1.43;38.55
36514;BME280;74739;46.796;9.824;2023-12-20T06:28:54;84410.43;;;2.54;38.24
36514;BME280;74739;46.796;9.824;2023-12-20T06:31:21;84418.53;;;-1.58;45.70
36514;BME280;74739;46.796;9.824;2023-12-20T06:33:48;84421.23;;;-3.16;49.79
36514;BME280;74739;46.796;9.824;2023-12-20T06:36:15;84415.77;;;0.06;44.64
36514;BME280;74739;46.796;9.824;2023-12-20T06:38:42;84414.37;;;0.93;41.52
36514;BME280;74739;46.796;9.824;2023-12-20T06:41:13;84420.31;;;-0.87;44.23
36514;BME280;74739;46.796;9.824;2023-12-20T06:43:40;84418.07;;;-2.95;48.41
36514;BME280;74739;46.796;9.824;2023-12-20T06:46:06;84419.91;;;-3.21;48.76
36514;BME280;74739;46.796;9.824;2023-12-20T06:48:33;84420.10;;;-2.57;47.38
36514;BME280;74739;46.796;9.824;2023-12-20T06:51:01;84418.00;;;-1.43;47.55
36514;BME280;74739;46.796;9.824;2023-12-20T06:53:29;84417.16;;;1.06;43.06
36514;BME280;74739;46.796;9.824;2023-12-20T06:55:56;84420.38;;;1.05;42.29
36514;BME280;74739;46.796;9.824;2023-12-20T06:58:23;84429.55;;;-0.73;45.57
36514;BME280;74739;46.796;9.824;2023-12-20T07:00:50;84429.32;;;2.23;39.85
36514;BME280;74739;46.796;9.824;2023-12-20T07:03:17;84441.21;;;-1.25;45.30
36514;BME280;74739;46.796;9.824;2023-12-20T07:05:44;84443.15;;;-1.74;46.87
36514;BME280;74739;46.796;9.824;2023-12-20T07:08:11;84444.77;;;-3.34;50.41
36514;BME280;74739;46.796;9.824;2023-12-20T07:10:38;84443.32;;;-2.77;50.29
36514;BME280;74739;46.796;9.824;2023-12-20T07:13:05;84441.11;;;-1.75;47.64
36514;BME280;74739;46.796;9.824;2023-12-20T07:15:32;84430.54;;;0.74;42.16
36514;BME280;74739;46.796;9.824;2023-12-20T07:18:00;84433.55;;;0.23;42.88
36514;BME280;74739;46.796;9.824;2023-12-20T07:20:28;84443.24;;;-2.68;49.72
36514;BME280;74739;46.796;9.824;2023-12-20T07:22:55;84443.50;;;-3.04;50.89
36514;BME280;74739;46.796;9.824;2023-12-20T07:25:21;84448.14;;;-2.08;48.57
36514;BME280;74739;46.796;9.824;2023-12-20T07:27:48;84455.85;;;-2.14;47.50
36514;BME280;74739;46.796;9.824;2023-12-20T07:30:15;84462.46;;;-3.04;51.86
36514;BME280;74739;46.796;9.824;2023-12-20T07:32:42;84459.73;;;-1.58;47.81
36514;BME280;74739;46.796;9.824;2023-12-20T07:35:09;84455.83;;;-0.06;44.29
36514;BME280;74739;46.796;9.824;2023-12-20T07:37:36;84454.77;;;-1.12;44.88
36514;BME280;74739;46.796;9.824;2023-12-20T07:40:03;84459.21;;;-2.37;46.85
36514;BME280;74739;46.796;9.824;2023-12-20T07:42:31;84460.47;;;-2.06;45.61
36514;BME280;74739;46.796;9.824;2023-12-20T07:44:58;84459.02;;;-2.51;47.43
36514;BME280;74739;46.796;9.824;2023-12-20T07:47:25;84459.80;;;-1.45;45.12
36514;BME280;74739;46.796;9.824;2023-12-20T07:49:52;84455.18;;;-1.49;44.72
36514;BME280;74739;46.796;9.824;2023-12-20T07:52:19;84454.54;;;-3.47;51.56
36514;BME280;74739;46.796;9.824;2023-12-20T07:54:47;84459.36;;;-4.16;53.69
36514;BME280;74739;46.796;9.824;2023-12-20T07:57:14;84454.41;;;-1.66;48.31
36514;BME280;74739;46.796;9.824;2023-12-20T07:59:43;84453.01;;;-0.51;44.80
36514;BME280;74739;46.796;9.824;2023-12-20T08:02:10;84461.96;;;-1.81;47.76
36514;BME280;74739;46.796;9.824;2023-12-20T08:04:38;84464.68;;;-1.38;47.24
36514;BME280;74739;46.796;9.824;2023-12-20T08:07:05;84461.82;;;-0.39;45.02
36514;BME280;74739;46.796;9.824;2023-12-20T08:09:38;84463.59;;;-1.31;46.67
36514;BME280;74739;46.796;9.824;2023-12-20T08:12:05;84459.70;;;-0.85;46.07
36514;BME280;74739;46.796;9.824;2023-12-20T08:14:32;84455.14;;;-1.07;46.14
36514;BME280;74739;46.796;9.824;2023-12-20T08:17:00;84449.82;;;0.62;43.06
36514;BME280;74739;46.796;9.824;2023-12-20T08:19:26;84462.82;;;-2.74;49.90
36514;BME280;74739;46.796;9.824;2023-12-20T08:21:53;84470.93;;;-3.71;52.62
36514;BME280;74739;46.796;9.824;2023-12-20T08:24:20;84468.82;;;-2.29;51.31
36514;BME280;74739;46.796;9.824;2023-12-20T08:26:47;84469.92;;;-0.40;46.13
36514;BME280;74739;46.796;9.824;2023-12-20T08:29:14;84466.64;;;0.50;43.95
36514;BME280;74739;46.796;9.824;2023-12-20T08:31:41;84472.87;;;-2.18;47.70
36514;BME280;74739;46.796;9.824;2023-12-20T08:34:11;84475.32;;;-3.56;53.04
36514;BME280;74739;46.796;9.824;2023-12-20T08:36:42;84476.45;;;-3.79;54.99
36514;BME280;74739;46.796;9.824;2023-12-20T08:39:10;84478.03;;;-4.49;56.61
36514;BME280;74739;46.796;9.824;2023-12-20T08:41:37;84478.06;;;-4.45;56.66
36514;BME280;74739;46.796;9.824;2023-12-20T08:44:04;84467.30;;;-3.42;53.75
36514;BME280;74739;46.796;9.824;2023-12-20T08:46:31;84467.32;;;-3.42;53.04
36514;BME280;74739;46.796;9.824;2023-12-20T08:48:59;84474.33;;;-3.19;53.50
36514;BME280;74739;46.796;9.824;2023-12-20T08:51:26;84469.82;;;-3.57;54.24
36514;BME280;74739;46.796;9.824;2023-12-20T08:53:53;84469.27;;;-3.19;52.60
36514;BME280;74739;46.796;9.824;2023-12-20T08:56:20;84467.73;;;-1.81;49.85
36514;BME280;74739;46.796;9.824;2023-12-20T08:58:47;84475.90;;;-1.33;49.65
36514;BME280;74739;46.796;9.824;2023-12-20T09:01:16;84481.07;;;-1.18;49.29
36514;BME280;74739;46.796;9.824;2023-12-20T09:03:43;84486.78;;;-1.78;49.20
36514;BME280;74739;46.796;9.824;2023-12-20T09:06:10;84488.86;;;-0.84;47.73
36514;BME280;74739;46.796;9.824;2023-12-20T09:08:37;84484.60;;;-0.59;47.05
36514;BME280;74739;46.796;9.824;2023-12-20T09:11:04;84485.00;;;-0.67;47.43
36514;BME280;74739;46.796;9.824;2023-12-20T09:13:31;84486.73;;;-0.87;48.05
36514;BME280;74739;46.796;9.824;2023-12-20T09:15:58;84490.35;;;-2.65;53.44
36514;BME280;74739;46.796;9.824;2023-12-20T09:18:25;84494.22;;;-3.89;56.70
36514;BME280;74739;46.796;9.824;2023-12-20T09:20:53;84500.86;;;-4.11;56.23
36514;BME280;74739;46.796;9.824;2023-12-20T09:23:20;84493.25;;;-2.90;54.19
36514;BME280;74739;46.796;9.824;2023-12-20T09:25:47;84494.77;;;-3.79;56.08
36514;BME280;74739;46.796;9.824;2023-12-20T09:28:14;84500.04;;;-5.07;60.25
36514;BME280;74739;46.796;9.824;2023-12-20T09:30:42;84492.89;;;-2.16;53.59
36514;BME280;74739;46.796;9.824;2023-12-20T09:33:10;84492.60;;;-1.30;51.24
36514;BME280;74739;46.796;9.824;2023-12-20T09:35:37;84494.66;;;-0.69;48.66
36514;BME280;74739;46.796;9.824;2023-12-20T09:38:04;84493.05;;;-1.15;49.74
36514;BME280;74739;46.796;9.824;2023-12-20T09:40:32;84489.69;;;-0.87;50.09
36514;BME280;74739;46.796;9.824;2023-12-20T09:43:04;84489.70;;;-1.65;52.49
36514;BME280;74739;46.796;9.824;2023-12-20T09:45:32;84494.02;;;-2.87;53.43
36514;BME280;74739;46.796;9.824;2023-12-20T09:47:59;84490.22;;;-1.67;54.15
36514;BME280;74739;46.796;9.824;2023-12-20T09:50:26;84491.79;;;-2.87;55.58
36514;BME280;74739;46.796;9.824;2023-12-20T09:52:56;84493.04;;;-3.05;56.87
36514;BME280;74739;46.796;9.824;2023-12-20T09:55:25;84486.27;;;-1.68;54.11
36514;BME280;74739;46.796;9.824;2023-12-20T09:57:53;84480.63;;;-2.52;56.07
36514;BME280;74739;46.796;9.824;2023-12-20T10:00:20;84474.82;;;-1.03;53.35
36514;BME280;74739;46.796;9.824;2023-12-20T10:02:57;84470.61;;;-1.15;52.41
36514;BME280;74739;46.796;9.824;2023-12-20T10:05:28;84468.09;;;-1.42;53.86
36514;BME280;74739;46.796;9.824;2023-12-20T10:07:56;84463.82;;;-1.36;54.48
36514;BME280;74739;46.796;9.824;2023-12-20T10:10:23;84457.09;;;-1.91;55.49
36514;BME280;74739;46.796;9.824;2023-12-20T10:13:02;84449.65;;;-2.47;57.21
36514;BME280;74739;46.796;9.824;2023-12-20T10:15:32;84452.79;;;-3.42;60.09
36514;BME280;74739;46.796;9.824;2023-12-20T10:18:00;84448.35;;;-2.12;57.62
36514;BME280;74739;46.796;9.824;2023-12-20T10:20:28;84445.24;;;-3.00;58.26
36514;BME280;74739;46.796;9.824;2023-12-20T10:22:56;84435.75;;;-0.19;51.83
36514;BME280;74739;46.796;9.824;2023-12-20T10:25:24;84432.35;;;-0.46;51.93
36514;BME280;74739;46.796;9.824;2023-12-20T10:28:09;84429.89;;;-0.95;53.70
36514;BME280;74739;46.796;9.824;2023-12-20T10:30:37;84425.63;;;-0.55;52.33
36514;BME280;74739;46.796;9.824;2023-12-20T10:33:05;84426.94;;;-1.95;55.78
36514;BME280;74739;46.796;9.824;2023-12-20T10:35:32;84423.64;;;-1.85;55.36
36514;BME280;74739;46.796;9.824;2023-12-20T10:38:03;84428.71;;;-1.68;54.16
36514;BME280;74739;46.796;9.824;2023-12-20T10:40:31;84423.25;;;-3.67;61.04
36514;BME280;74739;46.796;9.824;2023-12-20T10:43:00;84425.74;;;-1.77;57.24
36514;BME280;74739;46.796;9.824;2023-12-20T10:45:28;84426.13;;;-3.41;59.90
36514;BME280;74739;46.796;9.824;2023-12-20T10:47:55;84426.07;;;-2.00;58.46
36514;BME280;74739;46.796;9.824;2023-12-20T10:50:23;84425.47;;;-3.07;59.00
36514;BME280;74739;46.796;9.824;2023-12-20T10:52:50;84420.59;;;-2.38;58.39
36514;BME280;74739;46.796;9.824;2023-12-20T10:55:18;84415.68;;;-1.92;57.29
36514;BME280;74739;46.796;9.824;2023-12-20T10:57:46;84403.97;;;0.20;51.47
36514;BME280;74739;46.796;9.824;2023-12-20T11:00:16;84403.96;;;0.50;50.72
36514;BME280;74739;46.796;9.824;2023-12-20T11:02:44;84402.35;;;1.03;49.31
36514;BME280;74739;46.796;9.824;2023-12-20T11:05:22;84395.44;;;-0.24;51.60
36514;BME280;74739;46.796;9.824;2023-12-20T11:07:52;84403.68;;;-1.50;54.29
36514;BME280;74739;46.796;9.824;2023-12-20T11:10:26;84398.95;;;0.15;52.19
36514;BME280;74739;46.796;9.824;2023-12-20T11:13:01;84403.35;;;-1.29;53.40
36514;BME280;74739;46.796;9.824;2023-12-20T11:15:32;84395.32;;;-0.12;51.28
36514;BME280;74739;46.796;9.824;2023-12-20T11:17:59;84403.83;;;-2.26;57.11
36514;BME280;74739;46.796;9.824;2023-12-20T11:20:36;84403.69;;;-2.70;58.55
36514;BME280;74739;46.796;9.824;2023-12-20T11:23:03;84400.69;;;-1.87;57.34
36514;BME280;74739;46.796;9.824;2023-12-20T11:25:46;84402.56;;;-3.26;61.27
36514;BME280;74739;46.796;9.824;2023-12-20T11:28:13;84400.71;;;-2.62;60.73
36514;BME280;74739;46.796;9.824;2023-12-20T11:30:42;84399.23;;;-3.00;61.25
36514;BME280;74739;46.796;9.824;2023-12-20T11:33:13;84395.90;;;-3.23;61.39
36514;BME280;74739;46.796;9.824;2023-12-20T11:35:40;84395.48;;;-3.31;61.01
36514;BME280;74739;46.796;9.824;2023-12-20T11:38:08;84389.76;;;-2.70;60.50
36514;BME280;74739;46.796;9.824;2023-12-20T11:40:36;84387.55;;;-1.31;55.83
36514;BME280;74739;46.796;9.824;2023-12-20T11:43:04;84388.66;;;-2.03;56.46
36514;BME280;74739;46.796;9.824;2023-12-20T11:45:31;84380.99;;;-1.21;54.68
36514;BME280;74739;46.796;9.824;2023-12-20T11:47:58;84380.36;;;-0.83;51.94
36514;BME280;74739;46.796;9.824;2023-12-20T11:50:25;84380.38;;;-0.75;53.32
36514;BME280;74739;46.796;9.824;2023-12-20T11:52:53;84380.91;;;0.96;49.16
36514;BME280;74739;46.796;9.824;2023-12-20T11:55:20;84378.11;;;1.79;48.18
36514;BME280;74739;46.796;9.824;2023-12-20T11:57:47;84376.27;;;2.07;47.23
36514;BME280;74739;46.796;9.824;2023-12-20T12:00:15;84375.72;;;-0.79;52.13
36514;BME280;74739;46.796;9.824;2023-12-20T12:02:42;84366.62;;;0.56;50.11
36514;BME280;74739;46.796;9.824;2023-12-20T12:05:09;84356.43;;;0.52;49.33
36514;BME280;74739;46.796;9.824;2023-12-20T12:07:36;84354.47;;;0.87;49.12
36514;BME280;74739;46.796;9.824;2023-12-20T12:10:03;84350.48;;;1.27;48.22
36514;BME280;74739;46.796;9.824;2023-12-20T12:12:31;84352.86;;;-1.12;52.32
36514;BME280;74739;46.796;9.824;2023-12-20T12:14:58;84351.07;;;-0.67;52.49
36514;BME280;74739;46.796;9.824;2023-12-20T12:17:25;84352.49;;;-0.18;50.69
36514;BME280;74739;46.796;9.824;2023-12-20T12:20:02;84346.63;;;0.64;49.56
36514;BME280;74739;46.796;9.824;2023-12-20T12:22:29;84348.79;;;-0.85;51.52
36514;BME280;74739;46.796;9.824;2023-12-20T12:25:10;84342.90;;;-0.86;52.60
36514;BME280;74739;46.796;9.824;2023-12-20T12:27:40;84339.79;;;-0.29;51.42
36514;BME280;74739;46.796;9.824;2023-12-20T12:30:10;84344.05;;;-1.86;55.46
36514;BME280;74739;46.796;9.824;2023-12-20T12:32:38;84345.89;;;-2.99;58.17
36514;BME280;74739;46.796;9.824;2023-12-20T12:35:05;84346.05;;;-2.52;57.44
36514;BME280;74739;46.796;9.824;2023-12-20T12:37:34;84349.19;;;-2.61;58.04
36514;BME280;74739;46.796;9.824;2023-12-20T12:40:03;84342.79;;;-1.40;55.02
36514;BME280;74739;46.796;9.824;2023-12-20T12:42:31;84342.77;;;-1.47;53.40
36514;BME280;74739;46.796;9.824;2023-12-20T12:44:58;84344.48;;;-1.55;53.97
36514;BME280;74739;46.796;9.824;2023-12-20T12:47:24;84340.26;;;-3.05;57.47
36514;BME280;74739;46.796;9.824;2023-12-20T12:49:51;84337.87;;;-1.77;54.70
36514;BME280;74739;46.796;9.824;2023-12-20T12:52:18;84335.36;;;-2.93;56.28
36514;BME280;74739;46.796;9.824;2023-12-20T12:54:45;84339.44;;;-2.55;56.12
36514;BME280;74739;46.796;9.824;2023-12-20T12:57:13;84339.26;;;-2.52;56.61
36514;BME280;74739;46.796;9.824;2023-12-20T12:59:41;84345.74;;;-2.13;54.40
36514;BME280;74739;46.796;9.824;2023-12-20T13:02:08;84344.25;;;-1.99;54.64
36514;BME280;74739;46.796;9.824;2023-12-20T13:04:35;84340.26;;;-3.19;57.37